Time;durP1;ratioP1;P1;durP2;ratioP2;P2;SDS_P1;SDS_P2;PMS_P1;PMS_P2;Temp;Humidity;BMP_temperature;BMP_pressure;BME280_temperature;BME280_humidity;BME280_pressure;Samples;Min_cycle;Max_cycle;Signal;HPM_P1;HPM_P2
2022/12/20 06:01:09;;;;;;;;;;;;;;;8.59;62.06;97452.19;4247580;27;10189;-67
2022/12/20 06:03:13;;;;;;;;;;;;;;;8.91;61.85;97461.06;4234576;27;5772;-67
2022/12/20 06:05:17;;;;;;;;;;;;;;;9.14;61.51;97461.22;4237862;27;6183;-67
2022/12/20 06:07:20;;;;;;;;;;;;;;;9.30;61.15;97450.63;4239990;27;5602;-68
2022/12/20 06:09:22;;;;;;;;;;;;;;;9.46;60.84;97449.75;4237617;27;5766;-68
2022/12/20 06:11:25;;;;;;;;;;;;;;;9.56;60.67;97445.09;4234216;27;5612;-68
2022/12/20 06:13:32;;;;;;;;;;;;;;;9.67;60.21;97447.38;4241110;27;5676;-69
2022/12/20 06:15:35;;;;;;;;;;;;;;;9.76;60.37;97438.44;4242352;27;5673;-69
2022/12/20 06:17:39;;;;;;;;;;;;;;;9.83;60.40;97441.19;4236157;27;5593;-68
2022/12/20 06:19:42;;;;;;;;;;;;;;;9.89;59.93;97436.06;4234338;27;5892;-68
2022/12/20 06:21:44;;;;;;;;;;;;;;;9.95;60.11;97433.69;4238450;27;5703;-69
2022/12/20 06:23:47;;;;;;;;;;;;;;;9.99;59.62;97427.91;4236661;27;5602;-68
2022/12/20 06:25:51;;;;;;;;;;;;;;;10.03;59.51;97431.03;4237823;27;5643;-68
2022/12/20 06:27:54;;;;;;;;;;;;;;;10.04;59.47;97436.13;4239605;27;5812;-68
2022/12/20 06:29:57;;;;;;;;;;;;;;;10.06;59.48;97433.31;4238016;27;5763;-67
2022/12/20 06:31:59;;;;;;;;;;;;;;;10.08;59.48;97431.31;4233557;27;5692;-67
2022/12/20 06:34:04;;;;;;;;;;;;;;;10.11;59.45;97420.41;4234159;27;5806;-68
2022/12/20 06:36:07;;;;;;;;;;;;;;;10.12;59.51;97427.34;4242362;27;5597;-68
2022/12/20 06:38:11;;;;;;;;;;;;;;;10.14;59.25;97417.41;4230749;27;5792;-67
2022/12/20 06:40:14;;;;;;;;;;;;;;;10.17;59.03;97417.06;4238134;27;5740;-67
2022/12/20 06:42:17;;;;;;;;;;;;;;;10.17;59.28;97403.84;4235406;27;5641;-68
2022/12/20 06:44:20;;;;;;;;;;;;;;;10.19;58.96;97399.19;4235514;27;5639;-67
2022/12/20 06:46:23;;;;;;;;;;;;;;;10.21;59.08;97391.94;4236290;27;6362;-68
2022/12/20 06:48:25;;;;;;;;;;;;;;;10.23;58.62;97389.97;4237847;27;6918;-68
2022/12/20 06:50:30;;;;;;;;;;;;;;;10.24;58.43;97410.13;4239097;27;5120;-68
2022/12/20 06:52:32;;;;;;;;;;;;;;;10.25;58.45;97398.53;4236296;27;6544;-68
2022/12/20 06:54:35;;;;;;;;;;;;;;;10.28;58.67;97402.66;4236098;27;5717;-68
2022/12/20 06:56:38;;;;;;;;;;;;;;;10.28;58.41;97405.28;4234791;27;5616;-68
2022/12/20 06:58:45;;;;;;;;;;;;;;;10.29;58.15;97407.75;4231602;27;5794;-69
2022/12/20 07:00:48;;;;;;;;;;;;;;;10.28;58.52;97408.75;4231057;27;5613;-68
2022/12/20 07:02:51;;;;;;;;;;;;;;;10.29;58.20;97415.69;4226374;28;5712;-68
2022/12/20 07:04:54;;;;;;;;;;;;;;;10.29;57.91;97414.84;4228929;28;5892;-68
2022/12/20 07:06:58;;;;;;;;;;;;;;;10.29;58.23;97406.94;4225011;28;5857;-68
2022/12/20 07:09:01;;;;;;;;;;;;;;;10.29;58.06;97409.56;4225558;28;6677;-69
2022/12/20 07:11:05;;;;;;;;;;;;;;;10.30;57.88;97411.22;4223442;28;5590;-68
2022/12/20 07:13:08;;;;;;;;;;;;;;;10.29;57.96;97409.56;4223634;28;5780;-69
2022/12/20 07:15:11;;;;;;;;;;;;;;;10.31;57.98;97408.44;4234757;28;5773;-68
2022/12/20 07:17:14;;;;;;;;;;;;;;;10.30;57.89;97404.13;4231203;28;5689;-69
2022/12/20 07:19:17;;;;;;;;;;;;;;;10.30;57.94;97412.03;4233761;28;6374;-69
2022/12/20 07:21:21;;;;;;;;;;;;;;;10.32;57.73;97409.25;4230922;28;5668;-69
2022/12/20 07:23:25;;;;;;;;;;;;;;;10.34;57.67;97402.78;4225055;28;5696;-67
2022/12/20 07:25:28;;;;;;;;;;;;;;;10.36;57.44;97413.16;4231645;28;5598;-68
2022/12/20 07:27:31;;;;;;;;;;;;;;;10.37;57.62;97418.28;4236455;28;5665;-71
2022/12/20 07:29:35;;;;;;;;;;;;;;;10.37;57.45;97418.28;4223727;28;5605;-71
2022/12/20 07:31:37;;;;;;;;;;;;;;;10.36;57.64;97415.81;4219986;28;5628;-71
2022/12/20 07:33:40;;;;;;;;;;;;;;;10.35;57.64;97414.16;4227956;28;6118;-72
2022/12/20 07:35:44;;;;;;;;;;;;;;;10.35;57.43;97427.38;4227607;28;5609;-71
2022/12/20 07:37:54;;;;;;;;;;;;;;;10.35;57.43;97415.00;4208739;28;5708;-70
2022/12/20 07:39:59;;;;;;;;;;;;;;;10.35;57.23;97428.22;4227913;28;5605;-71
2022/12/20 07:42:02;;;;;;;;;;;;;;;10.38;57.46;97424.38;4227952;28;5612;-70
2022/12/20 07:44:05;;;;;;;;;;;;;;;10.39;57.69;97441.88;4219441;28;5709;-71
2022/12/20 07:46:10;;;;;;;;;;;;;;;10.39;57.47;97444.53;4219162;28;5676;-70
2022/12/20 07:48:13;;;;;;;;;;;;;;;10.41;57.39;97438.06;4227528;28;5642;-71
2022/12/20 07:50:23;;;;;;;;;;;;;;;10.42;57.09;97442.38;4230301;28;6230;-70
2022/12/20 07:52:29;;;;;;;;;;;;;;;10.43;57.44;97438.72;4224136;28;5193;-71
2022/12/20 07:54:35;;;;;;;;;;;;;;;10.46;57.09;97433.09;4227419;28;7679;-71
2022/12/20 07:56:43;;;;;;;;;;;;;;;10.48;56.96;97435.53;4227627;28;5629;-70
2022/12/20 07:58:46;;;;;;;;;;;;;;;10.47;56.94;97452.41;4233739;28;5685;-71
2022/12/20 08:00:50;;;;;;;;;;;;;;;10.43;57.26;97445.84;4236061;28;5601;-71
2022/12/20 08:02:58;;;;;;;;;;;;;;;10.44;57.33;97440.38;4220157;28;5624;-70
2022/12/20 08:05:03;;;;;;;;;;;;;;;10.44;56.98;97440.38;4235783;28;5594;-71
2022/12/20 08:07:08;;;;;;;;;;;;;;;10.44;56.98;97434.25;4218956;28;5842;-70
2022/12/20 08:09:13;;;;;;;;;;;;;;;10.44;57.14;97445.66;4219238;28;5775;-71
2022/12/20 08:11:17;;;;;;;;;;;;;;;10.45;56.94;97444.66;4219255;28;5665;-72
2022/12/20 08:13:22;;;;;;;;;;;;;;;10.45;57.26;97452.59;4218273;28;5689;-70
2022/12/20 08:15:28;;;;;;;;;;;;;;;10.46;57.01;97448.13;4207071;28;5644;-70
2022/12/20 08:17:31;;;;;;;;;;;;;;;10.48;57.19;97446.94;4223241;28;5890;-70
2022/12/20 08:19:33;;;;;;;;;;;;;;;10.49;56.81;97443.28;4227890;28;5654;-72
2022/12/20 08:21:37;;;;;;;;;;;;;;;10.50;56.86;97437.00;4231171;28;5604;-70
2022/12/20 08:23:39;;;;;;;;;;;;;;;10.53;56.84;97435.00;4227788;28;5625;-71
2022/12/20 08:25:42;;;;;;;;;;;;;;;10.57;56.90;97438.97;4228248;28;5735;-71
2022/12/20 08:27:45;;;;;;;;;;;;;;;10.58;57.17;97427.38;4219620;28;5728;-70
2022/12/20 08:29:50;;;;;;;;;;;;;;;10.62;56.93;97423.38;4234495;28;5615;-71
2022/12/20 08:31:53;;;;;;;;;;;;;;;10.65;56.65;97415.94;4228865;28;5616;-72
2022/12/20 08:33:55;;;;;;;;;;;;;;;10.67;56.78;97413.09;4221126;28;7019;-71
2022/12/20 08:36:02;;;;;;;;;;;;;;;10.68;56.75;97415.56;4219649;28;5673;-70
2022/12/20 08:38:05;;;;;;;;;;;;;;;10.68;56.76;97406.81;4222809;28;5669;-70
2022/12/20 08:40:09;;;;;;;;;;;;;;;10.72;56.83;97402.78;4225341;28;5679;-71
2022/12/20 08:42:13;;;;;;;;;;;;;;;10.74;56.43;97404.25;4225097;28;5739;-72
2022/12/20 08:44:15;;;;;;;;;;;;;;;10.75;56.72;97399.78;4232434;28;5619;-71
2022/12/20 08:46:20;;;;;;;;;;;;;;;10.75;56.73;97399.78;4226601;28;5747;-72
2022/12/20 08:48:23;;;;;;;;;;;;;;;10.79;56.41;97387.88;4234092;28;5166;-72
2022/12/20 08:50:26;;;;;;;;;;;;;;;10.81;56.36;97377.91;4225778;28;5598;-71
2022/12/20 08:52:29;;;;;;;;;;;;;;;10.84;56.32;97382.84;4223945;28;5773;-69
2022/12/20 08:54:32;;;;;;;;;;;;;;;10.87;56.51;97389.59;4233243;28;5591;-70
2022/12/20 08:56:35;;;;;;;;;;;;;;;10.88;56.45;97389.44;4225804;28;5764;-70
2022/12/20 08:58:39;;;;;;;;;;;;;;;10.89;56.28;97369.09;4225733;28;5668;-71
2022/12/20 09:00:41;;;;;;;;;;;;;;;10.91;56.37;97367.09;4219423;28;5676;-70
2022/12/20 09:02:47;;;;;;;;;;;;;;;10.95;56.20;97385.03;4227656;28;6747;-70
2022/12/20 09:04:50;;;;;;;;;;;;;;;10.96;56.10;97370.00;4227617;28;5718;-69
2022/12/20 09:06:53;;;;;;;;;;;;;;;10.99;55.93;97362.53;4217781;28;5708;-70
2022/12/20 09:08:56;;;;;;;;;;;;;;;11.02;55.94;97348.94;4217812;28;5632;-72
2022/12/20 09:11:04;;;;;;;;;;;;;;;11.02;56.23;97364.00;4234342;28;5756;-71
2022/12/20 09:13:07;;;;;;;;;;;;;;;11.01;56.11;97362.34;4217779;28;5605;-71
2022/12/20 09:15:11;;;;;;;;;;;;;;;11.00;56.21;97372.13;4218022;28;6160;-71
2022/12/20 09:17:14;;;;;;;;;;;;;;;11.00;56.09;97364.19;4226904;28;5598;-70
2022/12/20 09:19:18;;;;;;;;;;;;;;;10.99;55.97;97359.06;4228448;28;5946;-70
2022/12/20 09:21:22;;;;;;;;;;;;;;;11.01;55.69;97365.81;4218080;28;6887;-70
2022/12/20 09:23:25;;;;;;;;;;;;;;;11.03;55.84;97357.69;4229094;28;5630;-70
2022/12/20 09:25:28;;;;;;;;;;;;;;;11.03;56.15;97376.22;4232882;28;5845;-70
2022/12/20 09:27:31;;;;;;;;;;;;;;;11.06;55.70;97389.91;4234108;28;5742;-70
2022/12/20 09:29:34;;;;;;;;;;;;;;;11.08;55.95;97393.16;4234796;28;5643;-71
2022/12/20 09:31:37;;;;;;;;;;;;;;;11.09;55.86;97386.88;4225556;28;5606;-70
2022/12/20 09:33:41;;;;;;;;;;;;;;;11.12;56.02;97376.97;4225817;28;5610;-71
2022/12/20 09:35:47;;;;;;;;;;;;;;;11.13;55.94;97383.88;4216151;28;5685;-71
2022/12/20 09:37:49;;;;;;;;;;;;;;;11.14;56.12;97389.00;4224383;28;5645;-70
2022/12/20 09:39:52;;;;;;;;;;;;;;;11.13;55.91;97379.41;4221928;28;5688;-71
2022/12/20 09:41:55;;;;;;;;;;;;;;;11.14;56.10;97378.41;4225594;28;5622;-71
2022/12/20 09:44:00;;;;;;;;;;;;;;;11.18;56.06;97376.22;4232957;28;5610;-71
2022/12/20 09:46:03;;;;;;;;;;;;;;;11.17;55.99;97367.44;4217449;28;5620;-71
2022/12/20 09:48:13;;;;;;;;;;;;;;;11.19;55.97;97368.09;4219492;28;5693;-70
2022/12/20 09:50:19;;;;;;;;;;;;;;;11.21;55.92;97370.53;4231195;28;6351;-71
2022/12/20 09:52:35;;;;;;;;;;;;;;;11.21;55.83;97371.41;4225426;28;5824;-70
2022/12/20 09:54:47;;;;;;;;;;;;;;;11.24;55.78;97367.56;4199972;28;5643;-71
2022/12/20 09:57:00;;;;;;;;;;;;;;;11.25;55.81;97369.19;4230253;28;5610;-71
2022/12/20 09:59:05;;;;;;;;;;;;;;;11.25;55.53;97369.19;4227674;28;5610;-72
2022/12/20 10:01:16;;;;;;;;;;;;;;;11.25;55.73;97356.78;4221704;28;5608;-71
2022/12/20 10:03:31;;;;;;;;;;;;;;;11.28;55.87;97358.22;4221462;28;5661;-71
2022/12/20 10:05:42;;;;;;;;;;;;;;;11.28;55.65;97350.28;4220767;28;5620;-71
2022/12/20 10:07:55;;;;;;;;;;;;;;;11.29;55.90;97359.88;4223856;28;5712;-71
2022/12/20 10:10:27;;;;;;;;;;;;;;;11.29;55.74;97357.22;4233020;28;5648;-71
2022/12/20 10:12:45;;;;;;;;;;;;;;;11.31;55.92;97357.84;4221203;28;5606;-71
2022/12/20 10:15:00;;;;;;;;;;;;;;;11.31;55.52;97361.31;4230728;28;5677;-71
2022/12/20 10:17:09;;;;;;;;;;;;;;;11.34;55.64;97346.91;4211808;28;5625;-71
2022/12/20 10:19:33;;;;;;;;;;;;;;;11.33;55.63;97335.50;4223935;28;5656;-71
2022/12/20 10:21:58;;;;;;;;;;;;;;;11.36;55.65;97334.31;4232455;28;5606;-71
2022/12/20 10:24:05;;;;;;;;;;;;;;;11.38;55.78;97332.31;4223537;28;5597;-71
2022/12/20 10:26:10;;;;;;;;;;;;;;;11.38;55.72;97324.34;4233426;28;5598;-72
2022/12/20 10:28:15;;;;;;;;;;;;;;;11.43;55.47;97313.19;4230622;28;5143;-72
2022/12/20 10:30:21;;;;;;;;;;;;;;;11.45;55.47;97311.22;4234023;28;5614;-71
2022/12/20 10:32:27;;;;;;;;;;;;;;;11.47;55.25;97322.44;4221817;28;5661;-71
2022/12/20 10:34:31;;;;;;;;;;;;;;;11.45;55.17;97319.97;4213713;28;5621;-72
2022/12/20 10:36:40;;;;;;;;;;;;;;;11.46;55.28;97310.22;4230019;28;5732;-71
2022/12/20 10:38:45;;;;;;;;;;;;;;;11.48;55.66;97300.25;4222678;28;6341;-71
2022/12/20 10:41:00;;;;;;;;;;;;;;;11.53;55.21;97308.44;4230897;28;5605;-71
2022/12/20 10:43:24;;;;;;;;;;;;;;;11.57;55.26;97315.03;4220169;28;5688;-71
2022/12/20 10:45:34;;;;;;;;;;;;;;;11.56;54.97;97318.69;4223101;28;6390;-72
2022/12/20 10:47:42;;;;;;;;;;;;;;;11.57;55.19;97315.84;4235592;28;5653;-71
2022/12/20 10:49:44;;;;;;;;;;;;;;;11.62;54.94;97305.50;4227997;28;5624;-71
2022/12/20 10:51:53;;;;;;;;;;;;;;;11.63;54.98;97299.19;4228229;28;5712;-71
2022/12/20 10:53:59;;;;;;;;;;;;;;;11.64;54.73;97302.66;4220309;28;5714;-72
2022/12/20 10:56:23;;;;;;;;;;;;;;;11.61;54.94;97301.22;4226704;28;5625;-71
2022/12/20 10:58:34;;;;;;;;;;;;;;;11.61;55.09;97285.31;4226371;28;5602;-72
2022/12/20 11:00:38;;;;;;;;;;;;;;;11.60;54.75;97273.09;4225586;28;5807;-71
2022/12/20 11:02:41;;;;;;;;;;;;;;;11.59;54.89;97282.03;4223556;28;6416;-70
2022/12/20 11:04:58;;;;;;;;;;;;;;;11.62;54.80;97268.41;4220239;28;5669;-72
2022/12/20 11:07:03;;;;;;;;;;;;;;;11.69;54.66;97262.38;4224599;28;5693;-70
2022/12/20 11:09:25;;;;;;;;;;;;;;;11.74;54.82;97265.28;4223610;28;5849;-70
2022/12/20 11:11:30;;;;;;;;;;;;;;;11.75;54.55;97266.91;4234793;28;5730;-70
2022/12/20 11:13:32;;;;;;;;;;;;;;;11.76;54.56;97256.13;4210475;28;5604;-71
2022/12/20 11:15:36;;;;;;;;;;;;;;;11.77;54.69;97262.25;4232601;28;5613;-71
2022/12/20 11:17:47;;;;;;;;;;;;;;;11.75;54.82;97259.78;4219341;28;5739;-71
2022/12/20 11:20:04;;;;;;;;;;;;;;;11.77;54.74;97264.88;4226166;28;5605;-71
2022/12/20 11:22:18;;;;;;;;;;;;;;;11.79;54.94;97252.31;4226774;28;5836;-70
2022/12/20 11:24:30;;;;;;;;;;;;;;;11.83;54.60;97242.97;4236725;28;5606;-71
2022/12/20 11:26:49;;;;;;;;;;;;;;;11.87;54.21;97241.59;4223807;28;5665;-72
2022/12/20 11:29:06;;;;;;;;;;;;;;;11.92;54.37;97236.56;4227145;28;5795;-72
2022/12/20 11:31:20;;;;;;;;;;;;;;;11.94;54.26;97240.63;4227814;28;5768;-70
2022/12/20 11:33:44;;;;;;;;;;;;;;;11.96;53.95;97245.75;4221061;28;5737;-71
2022/12/20 11:35:52;;;;;;;;;;;;;;;11.94;53.97;97245.94;4228237;28;5672;-71
2022/12/20 11:38:06;;;;;;;;;;;;;;;11.93;54.09;97238.19;4194161;28;5790;-71
2022/12/20 11:40:24;;;;;;;;;;;;;;;11.95;54.11;97238.81;4227987;28;5594;-71
2022/12/20 11:42:42;;;;;;;;;;;;;;;11.98;54.45;97249.03;4222524;28;5701;-71
2022/12/20 11:44:56;;;;;;;;;;;;;;;11.99;54.50;97233.94;4228084;28;7464;-71
2022/12/20 11:47:31;;;;;;;;;;;;;;;11.98;54.57;97214.56;4220796;28;5692;-71
2022/12/20 11:49:53;;;;;;;;;;;;;;;12.01;54.52;97205.44;4226693;28;5687;-71
2022/12/20 11:52:05;;;;;;;;;;;;;;;12.02;54.71;97207.91;4234792;28;5590;-71
2022/12/20 11:54:14;;;;;;;;;;;;;;;12.04;54.66;97211.19;4218737;28;5649;-72
2022/12/20 11:56:21;;;;;;;;;;;;;;;12.07;54.67;97202.00;4227072;28;5693;-71
2022/12/20 11:58:32;;;;;;;;;;;;;;;12.08;54.55;97198.34;4224174;28;6208;-71
2022/12/20 12:00:45;;;;;;;;;;;;;;;12.08;54.74;97198.34;4222061;28;5628;-71
2022/12/20 12:02:53;;;;;;;;;;;;;;;12.09;54.78;97198.16;4225734;28;5634;-71
2022/12/20 12:05:04;;;;;;;;;;;;;;;12.12;54.88;97191.66;4227120;28;5832;-71
2022/12/20 12:07:14;;;;;;;;;;;;;;;12.12;54.77;97196.97;4226256;28;5672;-71
2022/12/20 12:09:22;;;;;;;;;;;;;;;12.12;54.74;97195.13;4227470;28;5609;-71
2022/12/20 12:11:29;;;;;;;;;;;;;;;12.14;54.64;97195.75;4224684;28;5636;-71
2022/12/20 12:13:55;;;;;;;;;;;;;;;12.16;54.77;97180.47;4219437;28;5744;-70
2022/12/20 12:16:05;;;;;;;;;;;;;;;12.19;54.50;97171.31;4226663;28;5610;-71
2022/12/20 12:18:18;;;;;;;;;;;;;;;12.20;54.64;97171.13;4220286;28;6295;-71
2022/12/20 12:20:28;;;;;;;;;;;;;;;12.21;54.30;97167.44;4225354;28;5876;-71
2022/12/20 12:22:36;;;;;;;;;;;;;;;12.23;54.56;97173.41;4222633;28;5716;-71
2022/12/20 12:24:44;;;;;;;;;;;;;;;12.28;53.97;97164.03;4227285;28;5707;-71
2022/12/20 12:26:47;;;;;;;;;;;;;;;12.31;53.97;97147.72;4232924;28;5747;-71
2022/12/20 12:28:56;;;;;;;;;;;;;;;12.31;54.11;97143.25;4235258;28;5492;-71
2022/12/20 12:31:04;;;;;;;;;;;;;;;12.30;53.82;97152.22;4234137;28;7064;-71
2022/12/20 12:33:15;;;;;;;;;;;;;;;12.31;54.14;97153.03;4224289;28;5760;-71
2022/12/20 12:35:46;;;;;;;;;;;;;;;12.32;53.70;97149.38;4222508;28;6351;-71
2022/12/20 12:38:02;;;;;;;;;;;;;;;12.33;53.94;97151.00;4229306;28;5666;-71
2022/12/20 12:40:22;;;;;;;;;;;;;;;12.33;53.83;97140.41;4224513;28;5788;-71
2022/12/20 12:42:56;;;;;;;;;;;;;;;12.35;53.72;97133.09;4221138;28;5681;-70
2022/12/20 12:45:04;;;;;;;;;;;;;;;12.38;53.92;97138.00;4222003;28;5653;-70
2022/12/20 12:47:16;;;;;;;;;;;;;;;12.35;53.76;97131.25;4218213;28;5712;-71
2022/12/20 12:49:22;;;;;;;;;;;;;;;12.31;54.02;97142.44;4217933;28;5761;-70
2022/12/20 12:51:30;;;;;;;;;;;;;;;12.26;53.90;97140.38;4223545;28;5087;-71
2022/12/20 12:53:38;;;;;;;;;;;;;;;12.24;54.04;97142.41;4230551;28;5711;-71
2022/12/20 12:55:44;;;;;;;;;;;;;;;12.20;54.25;97139.31;4231678;28;5722;-71
2022/12/20 12:57:56;;;;;;;;;;;;;;;12.20;54.31;97141.97;4228958;28;5705;-71
2022/12/20 12:59:58;;;;;;;;;;;;;;;12.21;54.15;97138.28;4229911;28;5629;-71
2022/12/20 13:02:25;;;;;;;;;;;;;;;12.19;54.21;97116.47;4226033;28;8532;-71
2022/12/20 13:04:30;;;;;;;;;;;;;;;12.18;54.02;97128.09;4218805;28;5811;-70
2022/12/20 13:06:56;;;;;;;;;;;;;;;12.19;54.10;97126.25;4230201;28;5612;-71
2022/12/20 13:09:17;;;;;;;;;;;;;;;12.18;54.33;97125.44;4226143;28;5625;-71
2022/12/20 13:11:29;;;;;;;;;;;;;;;12.19;54.12;97124.41;4220012;28;5878;-71
2022/12/20 13:13:33;;;;;;;;;;;;;;;12.20;54.31;97126.06;4212740;28;5604;-71
2022/12/20 13:15:51;;;;;;;;;;;;;;;12.21;54.24;97121.56;4211562;28;5627;-71
2022/12/20 13:17:59;;;;;;;;;;;;;;;12.23;54.19;97119.53;4226447;28;5631;-71
2022/12/20 13:20:02;;;;;;;;;;;;;;;12.25;54.17;97114.88;4225950;28;5597;-71
2022/12/20 13:22:20;;;;;;;;;;;;;;;12.28;53.73;97105.72;4217623;28;5679;-71
2022/12/20 13:24:36;;;;;;;;;;;;;;;12.30;54.13;97109.81;4223957;28;5594;-70
2022/12/20 13:26:49;;;;;;;;;;;;;;;12.32;53.69;97115.72;4226356;28;5713;-70
2022/12/20 13:28:52;;;;;;;;;;;;;;;12.36;53.55;97116.16;4225729;28;5606;-70
2022/12/20 13:31:27;;;;;;;;;;;;;;;12.38;53.81;97111.47;4234057;28;6421;-71
2022/12/20 13:33:42;;;;;;;;;;;;;;;12.42;53.73;97121.47;4218080;28;5612;-70
2022/12/20 13:36:28;;;;;;;;;;;;;;;12.43;53.58;97117.00;4224582;28;5594;-70
2022/12/20 13:39:03;;;;;;;;;;;;;;;12.44;53.53;97116.78;4209693;28;5903;-70
2022/12/20 13:41:19;;;;;;;;;;;;;;;12.44;53.36;97100.06;4217318;28;6393;-70
2022/12/20 13:43:28;;;;;;;;;;;;;;;12.48;53.25;97112.75;4225005;28;5880;-71
2022/12/20 13:45:31;;;;;;;;;;;;;;;12.50;53.38;97117.88;4207990;28;5613;-70
2022/12/20 13:47:38;;;;;;;;;;;;;;;12.47;53.33;97105.81;4217506;28;5816;-70
2022/12/20 13:49:44;;;;;;;;;;;;;;;12.47;53.17;97112.97;4224820;28;5708;-70
2022/12/20 13:51:48;;;;;;;;;;;;;;;12.47;53.20;97121.72;4226140;28;5779;-71
2022/12/20 13:53:53;;;;;;;;;;;;;;;12.47;53.53;97120.91;4226728;28;5747;-71
2022/12/20 13:55:56;;;;;;;;;;;;;;;12.48;53.39;97109.28;4217518;28;5725;-70
2022/12/20 13:58:10;;;;;;;;;;;;;;;12.50;53.15;97099.31;4232897;28;5621;-71
2022/12/20 14:00:17;;;;;;;;;;;;;;;12.52;53.12;97102.56;4221018;28;5845;-71
2022/12/20 14:02:23;;;;;;;;;;;;;;;12.53;53.02;97112.16;4217340;28;5685;-71
2022/12/20 14:04:38;;;;;;;;;;;;;;;12.55;53.00;97091.56;4228482;28;5609;-71
2022/12/20 14:06:42;;;;;;;;;;;;;;;12.60;53.25;97099.75;4225517;28;5100;-71
2022/12/20 14:08:48;;;;;;;;;;;;;;;12.61;52.84;97084.66;4225221;28;7825;-71
2022/12/20 14:10:53;;;;;;;;;;;;;;;12.61;53.16;97082.81;4226065;28;5688;-70
2022/12/20 14:12:57;;;;;;;;;;;;;;;12.62;53.17;97081.78;4228918;28;6355;-71
2022/12/20 14:15:21;;;;;;;;;;;;;;;12.63;53.19;97083.44;4235938;28;5684;-72
2022/12/20 14:17:27;;;;;;;;;;;;;;;12.62;53.37;97086.28;4229130;28;5613;-72
2022/12/20 14:19:30;;;;;;;;;;;;;;;12.59;53.56;97090.16;4225909;28;5779;-72
2022/12/20 14:21:36;;;;;;;;;;;;;;;12.56;53.46;97087.88;4228466;28;5620;-71
2022/12/20 14:23:44;;;;;;;;;;;;;;;12.59;53.29;97092.00;4228753;28;5606;-71
2022/12/20 14:25:51;;;;;;;;;;;;;;;12.58;53.51;97085.88;4230881;28;5688;-71
2022/12/20 14:27:54;;;;;;;;;;;;;;;12.58;53.47;97091.19;4221194;28;5605;-71
2022/12/20 14:29:57;;;;;;;;;;;;;;;12.56;53.28;97092.38;4220832;28;5601;-72
2022/12/20 14:32:01;;;;;;;;;;;;;;;12.55;53.60;97112.78;4229978;28;5609;-71
2022/12/20 14:34:06;;;;;;;;;;;;;;;12.57;53.34;97092.19;4233381;28;5589;-71
2022/12/20 14:36:17;;;;;;;;;;;;;;;12.60;53.28;97090.97;4219758;28;7667;-71
2022/12/20 14:38:23;;;;;;;;;;;;;;;12.59;53.16;97086.69;4231782;28;5620;-71
2022/12/20 14:40:28;;;;;;;;;;;;;;;12.58;53.19;97088.53;4222899;28;5817;-71
2022/12/20 14:42:35;;;;;;;;;;;;;;;12.56;53.30;97082.56;4227974;28;5696;-71
2022/12/20 14:44:38;;;;;;;;;;;;;;;12.56;53.10;97087.06;4220493;28;5807;-72
2022/12/20 14:46:48;;;;;;;;;;;;;;;12.54;53.03;97089.91;4220672;28;5669;-71
2022/12/20 14:49:22;;;;;;;;;;;;;;;12.54;53.05;97093.38;4231567;28;5838;-70
2022/12/20 14:51:25;;;;;;;;;;;;;;;12.56;53.05;97087.06;4220255;28;5594;-71
2022/12/20 14:53:28;;;;;;;;;;;;;;;12.53;52.80;97090.94;4231741;28;5867;-71
2022/12/20 14:55:37;;;;;;;;;;;;;;;12.51;53.17;97080.53;4223221;28;5806;-70
2022/12/20 14:57:46;;;;;;;;;;;;;;;12.51;53.02;97080.53;4231798;28;5642;-70
2022/12/20 14:59:59;;;;;;;;;;;;;;;12.49;52.95;97084.41;4227511;28;5853;-71
2022/12/20 15:02:32;;;;;;;;;;;;;;;12.48;53.17;97080.13;4231149;28;6871;-71
2022/12/20 15:04:35;;;;;;;;;;;;;;;12.45;52.83;97080.50;4222306;28;5630;-71
2022/12/20 15:06:43;;;;;;;;;;;;;;;12.43;53.12;97058.66;4227810;28;6558;-71
2022/12/20 15:08:46;;;;;;;;;;;;;;;12.43;53.27;97062.13;4222450;28;5864;-72
2022/12/20 15:10:58;;;;;;;;;;;;;;;12.45;53.10;97053.97;4233321;28;5590;-71
2022/12/20 15:13:02;;;;;;;;;;;;;;;12.44;53.13;97052.34;4237414;28;5832;-72
2022/12/20 15:15:05;;;;;;;;;;;;;;;12.43;53.11;97056.00;4225315;28;5594;-70
2022/12/20 15:17:28;;;;;;;;;;;;;;;12.43;52.84;97059.47;4229005;28;5609;-71
2022/12/20 15:19:32;;;;;;;;;;;;;;;12.43;52.92;97048.88;4232704;28;5602;-70
2022/12/20 15:21:42;;;;;;;;;;;;;;;12.47;52.84;97050.13;4228136;28;5717;-71
2022/12/20 15:23:48;;;;;;;;;;;;;;;12.50;52.71;97046.25;4220407;28;5840;-73
2022/12/20 15:25:51;;;;;;;;;;;;;;;12.54;52.71;97053.59;4229220;28;5609;-71
2022/12/20 15:27:55;;;;;;;;;;;;;;;12.56;52.31;97044.63;4221489;28;5820;-71
2022/12/20 15:29:58;;;;;;;;;;;;;;;12.59;52.39;97041.59;4225630;28;5791;-72
2022/12/20 15:32:12;;;;;;;;;;;;;;;12.60;52.50;97052.00;4220318;28;5763;-71
2022/12/20 15:34:19;;;;;;;;;;;;;;;12.63;52.00;97048.94;4221705;28;5629;-71
2022/12/20 15:36:25;;;;;;;;;;;;;;;12.64;52.02;97039.97;4221801;28;5830;-72
2022/12/20 15:38:30;;;;;;;;;;;;;;;12.64;51.93;97042.63;4224348;28;5620;-71
2022/12/20 15:41:00;;;;;;;;;;;;;;;12.65;51.97;97038.94;4221563;28;5604;-70
2022/12/20 15:43:09;;;;;;;;;;;;;;;12.66;51.87;97040.59;4224099;28;5852;-69
2022/12/20 15:45:13;;;;;;;;;;;;;;;12.65;52.01;97038.94;4224696;28;5681;-72
2022/12/20 15:47:17;;;;;;;;;;;;;;;12.66;51.86;97035.28;4223236;28;5135;-72
2022/12/20 15:49:22;;;;;;;;;;;;;;;12.63;51.71;97033.03;4225694;28;5705;-71
2022/12/20 15:51:30;;;;;;;;;;;;;;;12.64;52.01;97034.66;4224326;28;5809;-69
2022/12/20 15:53:34;;;;;;;;;;;;;;;12.64;51.86;97034.66;4221607;28;5665;-71
2022/12/20 15:55:37;;;;;;;;;;;;;;;12.66;52.17;97032.63;4229422;28;5681;-68
2022/12/20 15:57:42;;;;;;;;;;;;;;;12.67;51.95;97030.78;4225305;28;5624;-68
2022/12/20 15:59:46;;;;;;;;;;;;;;;12.67;51.63;97036.91;4221196;28;5705;-73
2022/12/20 16:02:02;;;;;;;;;;;;;;;12.68;51.88;97029.78;4224917;28;5825;-72
2022/12/20 16:04:06;;;;;;;;;;;;;;;12.70;51.59;97025.09;4220901;28;7166;-73
2022/12/20 16:06:11;;;;;;;;;;;;;;;12.71;51.79;97032.03;4227890;28;5599;-73
2022/12/20 16:08:15;;;;;;;;;;;;;;;12.72;51.62;97031.03;4225015;28;6309;-74
2022/12/20 16:10:18;;;;;;;;;;;;;;;12.72;51.83;97029.19;4226641;28;5689;-71
2022/12/20 16:12:26;;;;;;;;;;;;;;;12.72;51.40;97029.19;4223213;28;5723;-72
2022/12/20 16:14:29;;;;;;;;;;;;;;;12.70;51.70;97025.94;4228891;28;5665;-71
2022/12/20 16:16:35;;;;;;;;;;;;;;;12.72;51.74;97028.38;4224314;28;5684;-72
2022/12/20 16:18:38;;;;;;;;;;;;;;;12.76;51.70;97030.41;4223441;28;6779;-72
2022/12/20 16:20:41;;;;;;;;;;;;;;;12.79;51.33;97029.19;4221233;28;5602;-72
2022/12/20 16:22:44;;;;;;;;;;;;;;;12.80;51.54;97029.00;4228494;28;5726;-71
2022/12/20 16:24:47;;;;;;;;;;;;;;;12.80;51.29;97036.97;4218458;28;5790;-71
2022/12/20 16:26:50;;;;;;;;;;;;;;;12.81;51.21;97040.44;4232361;28;5697;-71
2022/12/20 16:28:54;;;;;;;;;;;;;;;12.81;51.50;97027.19;4222801;28;6550;-71
2022/12/20 16:30:57;;;;;;;;;;;;;;;12.79;51.23;97029.19;4233209;28;5735;-72
2022/12/20 16:33:02;;;;;;;;;;;;;;;12.78;51.33;97027.56;4226287;28;5701;-72
2022/12/20 16:35:05;;;;;;;;;;;;;;;12.76;51.45;97019.81;4227900;28;5714;-71
2022/12/20 16:37:10;;;;;;;;;;;;;;;12.76;51.59;97021.63;4225543;28;5589;-70
2022/12/20 16:39:15;;;;;;;;;;;;;;;12.74;52.00;97032.47;4223678;28;5680;-71
2022/12/20 16:41:20;;;;;;;;;;;;;;;12.72;51.47;97023.88;4218758;28;5724;-71
2022/12/20 16:43:24;;;;;;;;;;;;;;;12.71;51.58;97014.28;4224962;28;5734;-71
2022/12/20 16:45:29;;;;;;;;;;;;;;;12.70;51.83;97015.31;4221177;28;5668;-70
2022/12/20 16:47:31;;;;;;;;;;;;;;;12.69;51.54;97013.69;4225591;28;5923;-69
2022/12/20 16:49:36;;;;;;;;;;;;;;;12.67;51.84;97002.44;4224631;28;6300;-70
2022/12/20 16:51:43;;;;;;;;;;;;;;;12.67;51.45;97006.91;4219630;28;6290;-71
2022/12/20 16:53:46;;;;;;;;;;;;;;;12.65;51.64;97015.09;4230861;28;5732;-71
2022/12/20 16:56:17;;;;;;;;;;;;;;;12.65;51.81;97017.72;4224900;28;5570;-71
2022/12/20 16:58:20;;;;;;;;;;;;;;;12.65;51.94;97012.44;4226072;28;5590;-70
2022/12/20 17:00:25;;;;;;;;;;;;;;;12.66;51.86;97014.06;4229959;28;5629;-71
2022/12/20 17:02:31;;;;;;;;;;;;;;;12.67;51.71;97021.00;4226917;28;5841;-70
2022/12/20 17:04:36;;;;;;;;;;;;;;;12.67;51.43;97018.34;4224831;28;5700;-70
2022/12/20 17:06:39;;;;;;;;;;;;;;;12.67;51.58;97017.53;4227977;28;5629;-70
2022/12/20 17:08:43;;;;;;;;;;;;;;;12.66;51.70;97015.91;4224489;28;5900;-70
2022/12/20 17:10:55;;;;;;;;;;;;;;;12.65;51.59;97022.22;4224736;28;5854;-70
2022/12/20 17:12:58;;;;;;;;;;;;;;;12.63;51.33;97008.34;4224977;28;5743;-71
2022/12/20 17:15:01;;;;;;;;;;;;;;;12.62;51.49;97020.78;4216183;28;5731;-71